Map

Track Data

SID SEASON NUMBER BASIN SUBBASIN NAME ISO_TIME NATURE LAT LON WMO_WIND WMO_PRES WMO_AGENCY TRACK_TYPE DIST2LAND LANDFALL IFLAG USA_AGENCY USA_ATCF_ID USA_LAT USA_LON USA_RECORD USA_STATUS USA_WIND USA_PRES USA_SSHS USA_R34_NE USA_R34_SE USA_R34_SW USA_R34_NW USA_R50_NE USA_R50_SE USA_R50_SW USA_R50_NW USA_R64_NE USA_R64_SE USA_R64_SW USA_R64_NW USA_POCI USA_ROCI USA_RMW USA_EYE TOKYO_LAT TOKYO_LON TOKYO_GRADE TOKYO_WIND TOKYO_PRES TOKYO_R50_DIR TOKYO_R50_LONG TOKYO_R50_SHORT TOKYO_R30_DIR TOKYO_R30_LONG TOKYO_R30_SHORT TOKYO_LAND CMA_LAT CMA_LON CMA_CAT CMA_WIND CMA_PRES HKO_LAT HKO_LON HKO_CAT HKO_WIND HKO_PRES NEWDELHI_LAT NEWDELHI_LON NEWDELHI_GRADE NEWDELHI_WIND NEWDELHI_PRES NEWDELHI_CI NEWDELHI_DP NEWDELHI_POCI REUNION_LAT REUNION_LON REUNION_TYPE REUNION_WIND REUNION_PRES REUNION_TNUM REUNION_CI REUNION_RMW REUNION_R34_NE REUNION_R34_SE REUNION_R34_SW REUNION_R34_NW REUNION_R50_NE REUNION_R50_SE REUNION_R50_SW REUNION_R50_NW REUNION_R64_NE REUNION_R64_SE REUNION_R64_SW REUNION_R64_NW BOM_LAT BOM_LON BOM_TYPE BOM_WIND BOM_PRES BOM_TNUM BOM_CI BOM_RMW BOM_R34_NE BOM_R34_SE BOM_R34_SW BOM_R34_NW BOM_R50_NE BOM_R50_SE BOM_R50_SW BOM_R50_NW BOM_R64_NE BOM_R64_SE BOM_R64_SW BOM_R64_NW BOM_ROCI BOM_POCI BOM_EYE BOM_POS_METHOD BOM_PRES_METHOD NADI_LAT NADI_LON NADI_CAT NADI_WIND NADI_PRES WELLINGTON_LAT WELLINGTON_LON WELLINGTON_WIND WELLINGTON_PRES DS824_LAT DS824_LON DS824_STAGE DS824_WIND DS824_PRES TD9636_LAT TD9636_LON TD9636_STAGE TD9636_WIND TD9636_PRES TD9635_LAT TD9635_LON TD9635_WIND TD9635_PRES TD9635_ROCI NEUMANN_LAT NEUMANN_LON NEUMANN_CLASS NEUMANN_WIND NEUMANN_PRES MLC_LAT MLC_LON MLC_CLASS MLC_WIND MLC_PRES USA_GUST BOM_GUST BOM_GUST_PER REUNION_GUST REUNION_GUST_PER USA_SEAHGT USA_SEARAD_NE USA_SEARAD_SE USA_SEARAD_SW USA_SEARAD_NW STORM_SPEED STORM_DIR
2013248N16294 2013 58 NA CS GABRIELLE 2013-09-04 18:00:00 TS 16.2000 -65.9000 30 1010 hurdat_atl main 192 168 O_____________ hurdat_atl AL072013 16.2000 -65.9000 TD 30 1010 -1 1012 120 90 40 6 328
2013248N16294 2013 58 NA CS GABRIELLE 2013-09-04 21:00:00 TS 16.4575 -66.0700 main 157 134 P_____________ AL072013 16.4575 -66.0700 TD 30 1009 -1 1011 120 60 6 322
2013248N16294 2013 58 NA CS GABRIELLE 2013-09-05 00:00:00 TS 16.7000 -66.3000 30 1008 hurdat_atl main 134 116 O_____________ hurdat_atl AL072013 16.7000 -66.3000 TD 30 1008 -1 1010 120 30 45 7 311
2013248N16294 2013 58 NA CS GABRIELLE 2013-09-05 03:00:00 TS 16.9150 -66.6275 main 116 89 P_____________ AL072013 16.9150 -66.6275 TD 30 1008 -1 1010 120 30 8 301
2013248N16294 2013 58 NA CS GABRIELLE 2013-09-05 06:00:00 TS 17.1000 -67.0000 30 1008 hurdat_atl main 90 78 O_____________ hurdat_atl AL072013 17.1000 -67.0000 TD 30 1008 -1 1010 120 30 45 12 40 8 295
2013248N16294 2013 58 NA CS GABRIELLE 2013-09-05 09:00:00 TS 17.2424 -67.3502 main 81 70 P_____________ AL072013 17.2424 -67.3502 TD 30 1009 -1 1011 135 65 12 42 7 294
2013248N16294 2013 58 NA CS GABRIELLE 2013-09-05 12:00:00 TS 17.4000 -67.7000 30 1010 hurdat_atl main 77 77 O_____________ hurdat_atl AL072013 17.4000 -67.7000 TD 30 1010 -1 1013 150 100 40 12 45 8 297
2013248N16294 2013 58 NA CS GABRIELLE 2013-09-05 15:00:00 TS 17.6051 -68.1023 main 85 39 P_____________ AL072013 17.6051 -68.1023 TD 27 1010 -1 1012 150 65 8 307
2013248N16294 2013 58 NA CS GABRIELLE 2013-09-05 18:00:00 NR 17.9000 -68.4000 25 1010 hurdat_atl main 39 10 O_____________ hurdat_atl AL072013 17.9000 -68.4000 DB 25 1010 -3 1012 150 30 35 8 336
2013248N16294 2013 58 NA CS GABRIELLE 2013-09-05 21:00:00 NR 18.3349 -68.4453 main 10 0 P_____________ AL072013 18.3349 -68.4453 DB 25 1010 -3 1012 150 30 9 0
2013248N16294 2013 58 NA NA GABRIELLE 2013-09-06 00:00:00 NR 18.8000 -68.4000 25 1010 hurdat_atl main 15 15 O_____________ hurdat_atl AL072013 18.8000 -68.4000 DB 25 1010 -3 1012 150 30 9 0
2013248N16294 2013 58 NA NA GABRIELLE 2013-09-06 03:00:00 NR 19.1800 -68.4425 main 49 45 P_____________ AL072013 19.1800 -68.4425 DB 22 1010 -3 1012 150 30 7 352
2013248N16294 2013 58 NA NA GABRIELLE 2013-09-06 06:00:00 NR 19.5000 -68.5000 20 1010 hurdat_atl main 74 74 O_____________ hurdat_atl AL072013 19.5000 -68.5000 DB 20 1010 -3 1012 150 30 6 350
2013248N16294 2013 58 NA NA GABRIELLE 2013-09-06 09:00:00 NR 19.7725 -68.5500 main 91 91 P_____________ AL072013 19.7725 -68.5500 DB 20 1010 -3 1011 135 47 5 349
2013248N16294 2013 58 NA NA GABRIELLE 2013-09-06 12:00:00 NR 20.0000 -68.6000 20 1010 hurdat_atl main 107 107 O_____________ hurdat_atl AL072013 20.0000 -68.6000 DB 20 1010 -3 1011 120 65 4 345
2013248N16294 2013 58 NA NA GABRIELLE 2013-09-06 15:00:00 NR 20.1775 -68.6575 main 118 118 P_____________ AL072013 20.1775 -68.6575 DB 20 1010 -3 1011 120 65 4 347
2013248N16294 2013 58 NA NA GABRIELLE 2013-09-06 18:00:00 NR 20.4000 -68.7000 20 1010 hurdat_atl main 138 138 O_____________ hurdat_atl AL072013 20.4000 -68.7000 DB 20 1010 -3 1011 120 65 6 357
2013248N16294 2013 58 NA NA GABRIELLE 2013-09-06 21:00:00 NR 20.7700 -68.7001 main 179 179 P_____________ AL072013 20.7700 -68.7001 DB 20 1010 -3 1011 120 65 8 1
2013248N16294 2013 58 NA NA GABRIELLE 2013-09-07 00:00:00 NR 21.2000 -68.7000 20 1010 hurdat_atl main 221 221 O_____________ hurdat_atl AL072013 21.2000 -68.7000 DB 20 1010 -3 1011 120 65 8 0
2013248N16294 2013 58 NA NA GABRIELLE 2013-09-07 03:00:00 NR 21.6000 -68.7202 main 261 261 P_____________ AL072013 21.6000 -68.7202 DB 20 1010 -3 1011 120 65 8 353
2013248N16294 2013 58 NA NA GABRIELLE 2013-09-07 06:00:00 NR 22.0000 -68.8000 20 1010 hurdat_atl main 295 295 O_____________ hurdat_atl AL072013 22.0000 -68.8000 DB 20 1010 -3 1011 120 65 8 342
2013248N16294 2013 58 NA NA GABRIELLE 2013-09-07 09:00:00 NR 22.4001 -69.0072 main 329 329 P_____________ AL072013 22.4001 -69.0072 DB 22 1009 -3 1011 135 57 9 335
2013248N16294 2013 58 NA NA GABRIELLE 2013-09-07 12:00:00 NR 22.8000 -69.2000 25 1009 hurdat_atl main 365 365 O_____________ hurdat_atl AL072013 22.8000 -69.2000 DB 25 1009 -3 1012 150 50 8 345
2013248N16294 2013 58 NA NA GABRIELLE 2013-09-07 15:00:00 NR 23.2000 -69.2377 main 406 406 P_____________ AL072013 23.2000 -69.2377 DB 25 1009 -3 1012 175 62 8 1
2013248N16294 2013 58 NA NA GABRIELLE 2013-09-07 18:00:00 NR 23.6000 -69.2000 25 1009 hurdat_atl main 448 448 O_____________ hurdat_atl AL072013 23.6000 -69.2000 DB 25 1009 -3 1013 200 75 8 5
2013248N16294 2013 58 NA NA GABRIELLE 2013-09-07 21:00:00 NR 24.0375 -69.1650 main 491 491 P_____________ AL072013 24.0375 -69.1650 DB 25 1009 -3 1012 190 82 8 6
2013248N16294 2013 58 NA NA GABRIELLE 2013-09-08 00:00:00 NR 24.4000 -69.1000 25 1009 hurdat_atl main 536 536 O_____________ hurdat_atl AL072013 24.4000 -69.1000 DB 25 1009 -3 1012 180 90 6 15
2013248N16294 2013 58 NA NA GABRIELLE 2013-09-08 03:00:00 NR 24.6025 -69.0000 main 558 558 P_____________ AL072013 24.6025 -69.0000 DB 25 1009 -3 1012 180 90 4 31
2013248N16294 2013 58 NA NA GABRIELLE 2013-09-08 06:00:00 NR 24.7000 -68.9000 25 1009 hurdat_atl main 573 573 O_____________ hurdat_atl AL072013 24.7000 -68.9000 DB 25 1009 -3 1012 180 90 2 41
2013248N16294 2013 58 NA NA GABRIELLE 2013-09-08 09:00:00 NR 24.7650 -68.8425 main 588 588 P_____________ AL072013 24.7650 -68.8425 DB 25 1008 -3 1012 180 90 1 40
2013248N16294 2013 58 NA NA GABRIELLE 2013-09-08 12:00:00 NR 24.8000 -68.8000 25 1008 hurdat_atl main 588 588 O_____________ hurdat_atl AL072013 24.8000 -68.8000 DB 25 1008 -3 1012 180 90 1 37
2013248N16294 2013 58 NA NA GABRIELLE 2013-09-08 15:00:00 NR 24.8424 -68.7799 main 588 588 P_____________ AL072013 24.8424 -68.7799 DB 25 1008 -3 1012 180 90 1 40
2013248N16294 2013 58 NA NA GABRIELLE 2013-09-08 18:00:00 NR 24.9000 -68.7000 25 1008 hurdat_atl main 602 602 O_____________ hurdat_atl AL072013 24.9000 -68.7000 DB 25 1008 -3 1012 180 90 3 63
2013248N16294 2013 58 NA NA GABRIELLE 2013-09-08 21:00:00 NR 24.9851 -68.4725 main 620 620 P_____________ AL072013 24.9851 -68.4725 DB 25 1008 -3 1012 180 90 5 66
2013248N16294 2013 58 NA NA GABRIELLE 2013-09-09 00:00:00 NR 25.1000 -68.2000 25 1008 hurdat_atl main 641 641 O_____________ hurdat_atl AL072013 25.1000 -68.2000 DB 25 1008 -3 1012 180 90 5 59
2013248N16294 2013 58 NA NA GABRIELLE 2013-09-09 03:00:00 NR 25.2272 -68.0297 main 658 658 P_____________ AL072013 25.2272 -68.0297 DB 25 1008 -3 1012 180 90 5 50
2013248N16294 2013 58 NA NA GABRIELLE 2013-09-09 06:00:00 NR 25.4000 -67.8000 25 1008 hurdat_atl main 686 686 O_____________ hurdat_atl AL072013 25.4000 -67.8000 DB 25 1008 -3 1012 180 90 7 56
2013248N16294 2013 58 NA NA GABRIELLE 2013-09-09 09:00:00 NR 25.6201 -67.3949 main 721 721 P_____________ AL072013 25.6201 -67.3949 DB 27 1008 -3 1012 180 90 10 58
2013248N16294 2013 58 NA NA GABRIELLE 2013-09-09 12:00:00 DS 25.9000 -66.9000 30 1008 hurdat_atl main 772 772 O_____________ hurdat_atl AL072013 25.9000 -66.9000 LO 30 1008 -3 1012 180 90 11 57
2013248N16294 2013 58 NA NA GABRIELLE 2013-09-09 15:00:00 DS 26.2126 -66.3923 main 824 824 P_____________ AL072013 26.2126 -66.3923 LO 30 1008 -3 1012 180 90 11 52
2013248N16294 2013 58 NA NA GABRIELLE 2013-09-09 18:00:00 DS 26.6000 -65.9000 30 1008 hurdat_atl main 886 886 O_____________ hurdat_atl AL072013 26.6000 -65.9000 LO 30 1008 -3 1012 180 90 12 46
2013248N16294 2013 58 NA NA GABRIELLE 2013-09-09 21:00:00 DS 27.0476 -65.4328 main 948 948 P_____________ AL072013 27.0476 -65.4328 LO 30 1007 -3 1012 190 70 12 35
2013248N16294 2013 58 NA NA GABRIELLE 2013-09-10 00:00:00 TS 27.6000 -65.1000 30 1007 hurdat_atl main 1021 1021 O_____________ hurdat_atl AL072013 27.6000 -65.1000 TD 30 1007 -1 1013 200 50 35 13 17
2013248N16294 2013 58 NA NA GABRIELLE 2013-09-10 03:00:00 TS 28.2923 -65.0041 main 1096 1096 P_____________ AL072013 28.2923 -65.0041 TD 35 1006 0 35 50 1014 190 50 14 4
2013248N16294 2013 58 NA NA GABRIELLE 2013-09-10 06:00:00 TS 29.0000 -65.0000 40 1005 hurdat_atl main 1165 1165 O_____________ hurdat_atl AL072013 29.0000 -65.0000 TS 40 1005 0 70 100 1015 180 50 45 13 4
2013248N16294 2013 58 NA NA GABRIELLE 2013-09-10 09:00:00 TS 29.5800 -64.9001 main 1206 1180 P_____________ AL072013 29.5800 -64.9001 TS 47 1004 0 70 100 1015 170 50 11 9
2013248N16294 2013 58 NA NA GABRIELLE 2013-09-10 12:00:00 TS 30.1000 -64.8000 55 1003 hurdat_atl main 1180 1157 O_____________ hurdat_atl AL072013 30.1000 -64.8000 TS 55 1003 0 70 100 60 20 20 20 1016 160 50 45 12 90 90 60 11 8
2013248N16294 2013 58 NA NA GABRIELLE 2013-09-10 15:00:00 TS 30.6225 -64.7201 main 1157 1128 P_____________ AL072013 30.6225 -64.7201 TS 52 1003 0 80 100 60 20 20 20 1017 160 40 12 90 97 52 10 5
2013248N16294 2013 58 NA NA GABRIELLE 2013-09-10 18:00:00 TS 31.1000 -64.7000 50 1004 hurdat_atl main 1128 1105 O_____________ hurdat_atl AL072013 31.1000 -64.7000 TS 50 1004 0 90 100 30 60 20 20 20 1018 160 30 55 12 90 105 45 9 357
2013248N16294 2013 58 NA NA GABRIELLE 2013-09-10 21:00:00 TS 31.5449 -64.7549 main 1097 1068 P_____________ AL072013 31.5449 -64.7549 TS 50 1004 0 90 100 30 60 20 20 20 1017 130 25 12 90 105 45 8 348
2013248N16294 2013 58 NA NA GABRIELLE 2013-09-11 00:00:00 TS 31.9000 -64.9000 50 1004 hurdat_atl main 1068 1041 O_____________ hurdat_atl AL072013 31.9000 -64.9000 TS 50 1004 0 90 100 30 60 20 20 20 1017 100 20 60 12 90 105 45 7 331
2013248N16294 2013 58 NA NA GABRIELLE 2013-09-11 03:00:00 TS 32.1451 -65.1424 main 1041 1006 P_____________ AL072013 32.1451 -65.1424 TS 47 1006 0 90 75 30 60 1017 100 35 12 90 112 42 6 313
2013248N16294 2013 58 NA NA GABRIELLE 2013-09-11 06:00:00 TS 32.3000 -65.4000 45 1008 hurdat_atl main 1006 993 O_____________ hurdat_atl AL072013 32.3000 -65.4000 TS 45 1008 0 90 50 30 60 1017 100 50 55 12 90 120 40 4 309
2013248N16294 2013 58 NA NA GABRIELLE 2013-09-11 09:00:00 TS 32.4224 -65.5502 main 984 971 P_____________ AL072013 32.4224 -65.5502 TS 42 1008 0 90 45 25 60 1017 105 45 12 90 120 40 3 308
2013248N16294 2013 58 NA NA GABRIELLE 2013-09-11 12:00:00 TS 32.5000 -65.7000 40 1009 hurdat_atl main 971 954 O_____________ hurdat_atl AL072013 32.5000 -65.7000 TS 40 1009 0 90 40 20 60 1017 110 40 50 12 90 120 40 3 291
2013248N16294 2013 58 NA NA GABRIELLE 2013-09-11 15:00:00 TS 32.5425 -65.9277 main 954 924 P_____________ AL072013 32.5425 -65.9277 TS 37 1009 0 90 40 55 1017 110 40 12 105 80 50 4 283
2013248N16294 2013 58 NA NA GABRIELLE 2013-09-11 18:00:00 TS 32.6000 -66.2000 35 1009 hurdat_atl main 924 894 O_____________ hurdat_atl AL072013 32.6000 -66.2000 TS 35 1009 0 90 40 50 1017 110 40 45 12 120 40 60 5 292
2013248N16294 2013 58 NA NA GABRIELLE 2013-09-11 21:00:00 TS 32.7350 -66.4924 main 894 859 P_____________ AL072013 32.7350 -66.4924 TS 32 1009 -1 1016 110 40 6 301
2013248N16294 2013 58 NA NA GABRIELLE 2013-09-12 00:00:00 TS 32.9000 -66.8000 30 1009 hurdat_atl main 859 829 O_____________ hurdat_atl AL072013 32.9000 -66.8000 TD 30 1009 -1 1016 110 40 40 6 300
2013248N16294 2013 58 NA NA GABRIELLE 2013-09-12 03:00:00 TS 33.0426 -67.1300 main 829 795 P_____________ AL072013 33.0426 -67.1300 TD 30 1009 -1 1016 120 40 6 301
2013248N16294 2013 58 NA NA GABRIELLE 2013-09-12 06:00:00 TS 33.2000 -67.4000 30 1009 hurdat_atl main 795 777 O_____________ hurdat_atl AL072013 33.2000 -67.4000 TD 30 1009 -1 1016 130 40 40 12 90 40 60 5 317
2013248N16294 2013 58 NA NA GABRIELLE 2013-09-12 09:00:00 TS 33.3923 -67.5227 main 777 760 P_____________ AL072013 33.3923 -67.5227 TD 32 1008 -1 1016 130 40 12 95 40 60 4 337
2013248N16294 2013 58 NA NA GABRIELLE 2013-09-12 12:00:00 TS 33.6000 -67.6000 35 1008 hurdat_atl main 760 744 O_____________ hurdat_atl AL072013 33.6000 -67.6000 TS 35 1008 0 80 90 1016 130 40 40 12 100 40 60 4 334
2013248N16294 2013 58 NA NA GABRIELLE 2013-09-12 15:00:00 TS 33.7775 -67.7501 main 735 719 P_____________ AL072013 33.7775 -67.7501 TS 35 1008 0 80 1016 130 40 5 328
2013248N16294 2013 58 NA NA GABRIELLE 2013-09-12 18:00:00 TS 34.0000 -67.9000 35 1008 hurdat_atl main 719 692 O_____________ hurdat_atl AL072013 34.0000 -67.9000 TS 35 1008 0 80 1016 130 40 45 6 333
2013248N16294 2013 58 NA NA GABRIELLE 2013-09-12 21:00:00 TS 34.2899 -68.0665 main 692 681 P_____________ AL072013 34.2899 -68.0665 TS 35 1008 0 70 1014 130 40 7 347
2013248N16294 2013 58 NA NA GABRIELLE 2013-09-13 00:00:00 TS 34.7000 -68.1000 35 1008 hurdat_atl main 681 676 O_____________ hurdat_atl AL072013 34.7000 -68.1000 TS 35 1008 0 60 1012 130 40 45 12 90 90 60 9 9
2013248N16294 2013 58 NA NA GABRIELLE 2013-09-13 03:00:00 TS 35.2175 -67.8821 main 689 680 P_____________ AL072013 35.2175 -67.8821 TS 32 1007 -1 1010 120 45 12 90 90 60 13 22
2013248N16294 2013 58 NA NA GABRIELLE 2013-09-13 06:00:00 TS 35.9000 -67.5000 30 1007 hurdat_atl main 680 609 O_____________ hurdat_atl AL072013 35.9000 -67.5000 TD 30 1007 -1 1009 110 50 40 12 90 90 60 17 23
2013248N16294 2013 58 NA NA GABRIELLE 2013-09-13 09:00:00 TS 36.7528 -67.0625 main 599 536 P_____________ AL072013 36.7528 -67.0625 TD 30 1006 -1 1008 115 55 12 90 90 60 19 22
2013248N16294 2013 58 NA NA GABRIELLE 2013-09-13 12:00:00 TS 37.7000 -66.6000 30 1005 hurdat_atl main 531 O_____________ hurdat_atl AL072013 37.7000 -66.6000 TD 30 1005 -1 1007 120 60 40 12 90 90 60 20 21

About IBTrACS Database

This database is a web-friendly format of International Best Track Archive for Climate Stewardship (IBTrACS), a global best track data archive curated by NOAA dating back to 1842.

Updated: 2021-10-25